Time;durP1;ratioP1;P1;durP2;ratioP2;P2;SDS_P1;SDS_P2;PMS_P1;PMS_P2;Temp;Humidity;BMP_temperature;BMP_pressure;BME280_temperature;BME280_humidity;BME280_pressure;Samples;Min_cycle;Max_cycle;Signal;HPM_P1;HPM_P2
2022/09/10 00:01:16;;;;;;;15.15;8.00;;;;;;;14.31;100.00;100839.53;5087377;28;20018;-63
2022/09/10 00:03:42;;;;;;;13.60;7.88;;;;;;;14.32;100.00;100834.84;5085375;28;20039;-62
2022/09/10 00:06:09;;;;;;;16.67;8.00;;;;;;;14.32;100.00;100838.44;5090083;28;20125;-63
2022/09/10 00:08:35;;;;;;;15.32;7.90;;;;;;;14.34;100.00;100847.28;5089867;28;20028;-62
2022/09/10 00:11:04;;;;;;;13.80;8.68;;;;;;;14.37;100.00;100840.44;5087208;28;20039;-63
2022/09/10 00:13:30;;;;;;;14.52;8.07;;;;;;;14.37;100.00;100832.97;5089194;28;20506;-63
2022/09/10 00:15:55;;;;;;;18.45;9.02;;;;;;;14.39;100.00;100828.00;5089311;28;20032;-62
2022/09/10 00:18:21;;;;;;;18.10;8.48;;;;;;;14.38;100.00;100831.88;5088985;28;20037;-62
2022/09/10 00:20:50;;;;;;;16.15;9.35;;;;;;;14.39;100.00;100825.25;5089385;28;20035;-62
2022/09/10 00:23:18;;;;;;;13.15;8.82;;;;;;;14.34;100.00;100825.19;5084809;28;20458;-62
2022/09/10 00:25:44;;;;;;;14.95;8.38;;;;;;;14.36;100.00;100822.19;5089067;28;20424;-65
2022/09/10 00:28:10;;;;;;;15.57;8.32;;;;;;;14.34;100.00;100827.94;5089426;28;20017;-65
2022/09/10 00:30:43;;;;;;;18.05;9.00;;;;;;;14.35;100.00;100832.41;5088463;28;20040;-62
2022/09/10 00:33:09;;;;;;;19.27;8.88;;;;;;;14.33;100.00;100825.44;5089233;28;20032;-62
2022/09/10 00:35:35;;;;;;;13.85;8.50;;;;;;;14.32;100.00;100829.31;5088356;28;20478;-64
2022/09/10 00:38:00;;;;;;;12.80;8.40;;;;;;;14.31;100.00;100824.88;5089001;28;20108;-63
2022/09/10 00:40:26;;;;;;;13.38;8.32;;;;;;;14.31;100.00;100834.00;5088702;28;20036;-63
2022/09/10 00:42:51;;;;;;;13.55;8.95;;;;;;;14.31;100.00;100831.25;5088325;28;20024;-63
2022/09/10 00:45:22;;;;;;;18.38;8.88;;;;;;;14.31;100.00;100827.66;5089949;28;20035;-63
2022/09/10 00:47:50;;;;;;;14.20;8.60;;;;;;;14.29;100.00;100819.59;5088541;28;20656;-63
2022/09/10 00:50:28;;;;;;;13.43;8.93;;;;;;;14.27;100.00;100822.63;5087088;28;20043;-63
2022/09/10 00:52:57;;;;;;;13.80;8.45;;;;;;;14.27;100.00;100827.31;5083621;28;20032;-65
2022/09/10 00:55:23;;;;;;;16.45;9.35;;;;;;;14.25;100.00;100822.06;5087946;28;20455;-65
2022/09/10 00:57:53;;;;;;;17.05;8.77;;;;;;;14.26;100.00;100831.19;5087205;28;20583;-63
2022/09/10 01:00:19;;;;;;;14.95;8.77;;;;;;;14.24;100.00;100823.16;5086956;28;20032;-62
2022/09/10 01:02:45;;;;;;;17.50;9.85;;;;;;;14.25;100.00;100832.28;5089021;28;20028;-62
2022/09/10 01:05:12;;;;;;;16.75;9.25;;;;;;;14.25;100.00;100835.03;5088841;28;20035;-63
2022/09/10 01:07:37;;;;;;;14.73;8.55;;;;;;;14.24;100.00;100831.44;5089030;28;20028;-63
2022/09/10 01:10:22;;;;;;;17.75;9.00;;;;;;;14.25;100.00;100835.88;5088284;28;20074;-62
2022/09/10 01:12:59;;;;;;;15.00;8.82;;;;;;;14.26;100.00;100832.00;5088578;28;20375;-63
2022/09/10 01:15:41;;;;;;;14.43;9.38;;;;;;;14.28;100.00;100834.50;5087212;28;20123;-63
2022/09/10 01:18:37;;;;;;;14.77;9.23;;;;;;;14.32;100.00;100835.66;5089362;28;20040;-62
2022/09/10 01:21:03;;;;;;;15.65;9.68;;;;;;;14.29;100.00;100836.16;5080984;28;20436;-65
2022/09/10 01:23:56;;;;;;;16.47;9.87;;;;;;;14.34;100.00;100838.16;5087997;28;20021;-63
2022/09/10 01:27:02;;;;;;;15.20;10.05;;;;;;;14.33;100.00;100840.09;5087174;28;20093;-63
2022/09/10 01:29:51;;;;;;;15.15;9.68;;;;;;;14.34;100.00;100846.44;5072763;28;20115;-64
2022/09/10 01:32:32;;;;;;;17.83;10.77;;;;;;;14.34;100.00;100836.25;5082858;28;20028;-62
2022/09/10 01:35:16;;;;;;;20.67;9.95;;;;;;;14.36;100.00;100842.38;5088891;28;20059;-63
2022/09/10 01:37:47;;;;;;;14.27;10.23;;;;;;;14.36;100.00;100847.88;5087154;28;20035;-63
2022/09/10 01:40:16;;;;;;;16.25;10.35;;;;;;;14.35;100.00;100835.16;5088441;28;20020;-63
2022/09/10 01:42:41;;;;;;;16.85;11.13;;;;;;;14.34;100.00;100841.75;5087977;28;20086;-61
2022/09/10 01:45:11;;;;;;;17.58;11.60;;;;;;;14.35;100.00;100839.88;5089126;28;20390;-63
2022/09/10 01:47:42;;;;;;;17.88;11.98;;;;;;;14.33;100.00;100840.09;5086637;28;20112;-62
2022/09/10 01:50:23;;;;;;;21.30;12.95;;;;;;;14.33;100.00;100842.88;5088987;28;20031;-62
2022/09/10 01:53:09;;;;;;;19.67;12.00;;;;;;;14.33;100.00;100840.09;5087120;28;20024;-64
2022/09/10 01:55:50;;;;;;;19.85;11.93;;;;;;;14.34;100.00;100844.53;5079412;28;20047;-63
2022/09/10 01:58:21;;;;;;;18.27;12.90;;;;;;;14.33;100.00;100839.25;5085762;28;20028;-64
2022/09/10 02:00:58;;;;;;;20.05;12.63;;;;;;;14.35;100.00;100837.94;5086040;28;20028;-63
2022/09/10 02:03:25;;;;;;;17.90;13.13;;;;;;;14.35;100.00;100832.41;5088388;28;20055;-63
2022/09/10 02:05:53;;;;;;;20.92;12.75;;;;;;;14.35;100.00;100826.06;5087416;28;20055;-62
2022/09/10 02:08:25;;;;;;;21.05;13.00;;;;;;;14.34;100.00;100822.41;5087216;28;20060;-62
2022/09/10 02:10:58;;;;;;;20.67;12.60;;;;;;;14.35;100.00;100824.13;5086934;28;20048;-63
2022/09/10 02:13:24;;;;;;;20.83;13.40;;;;;;;14.36;100.00;100825.78;5088063;28;20097;-62
2022/09/10 02:15:51;;;;;;;19.73;13.50;;;;;;;14.38;100.00;100823.59;5087440;28;20471;-63
2022/09/10 02:18:22;;;;;;;18.30;12.98;;;;;;;14.38;100.00;100831.88;5087961;28;20095;-66
2022/09/10 02:20:50;;;;;;;20.25;13.48;;;;;;;14.38;100.00;100820.81;5086520;28;20044;-65
2022/09/10 02:23:17;;;;;;;;;;;;;;;14.45;100.00;100821.47;5088230;28;20024;-64
2022/09/10 02:25:43;;;;;;;21.58;13.35;;;;;;;14.41;100.00;100820.31;5086570;28;20352;-67
2022/09/10 02:28:09;;;;;;;24.40;13.52;;;;;;;14.43;100.00;100818.13;5088149;28;20101;-65
2022/09/10 02:30:34;;;;;;;22.75;14.63;;;;;;;14.41;100.00;100817.56;5086299;28;20020;-62
2022/09/10 02:32:59;;;;;;;26.48;14.68;;;;;;;14.45;100.00;100812.38;5084331;28;20028;-65
2022/09/10 02:35:24;;;;;;;20.00;14.32;;;;;;;14.44;100.00;100805.97;5085737;28;20089;-62
2022/09/10 02:37:50;;;;;;;20.65;14.02;;;;;;;14.45;100.00;100812.38;5086286;28;20030;-62
2022/09/10 02:40:20;;;;;;;22.70;14.77;;;;;;;14.46;100.00;100814.84;5088583;28;20099;-63
2022/09/10 02:42:45;;;;;;;22.17;15.10;;;;;;;14.45;100.00;100813.19;5087244;28;20021;-62
2022/09/10 02:45:14;;;;;;;21.70;15.23;;;;;;;14.46;100.00;100812.09;5087030;28;20375;-62
2022/09/10 02:47:40;;;;;;;21.73;15.63;;;;;;;14.46;100.00;100808.50;5086901;28;20035;-62
2022/09/10 02:50:07;;;;;;;19.77;15.05;;;;;;;14.46;100.00;100816.78;5087468;28;20383;-64
2022/09/10 02:52:32;;;;;;;24.80;14.85;;;;;;;14.49;100.00;100813.53;5086172;28;20490;-62
2022/09/10 02:54:58;;;;;;;21.55;14.43;;;;;;;14.49;100.00;100814.34;5085835;28;20063;-62
2022/09/10 02:57:24;;;;;;;22.50;14.35;;;;;;;14.51;100.00;100811.34;5085104;28;20025;-62
2022/09/10 02:59:50;;;;;;;19.45;14.70;;;;;;;14.54;100.00;100805.28;5087864;28;20081;-62
2022/09/10 03:02:15;;;;;;;23.92;15.70;;;;;;;14.56;100.00;100816.94;5085383;28;20390;-62
2022/09/10 03:04:41;;;;;;;21.63;15.15;;;;;;;14.55;100.00;100820.81;5087812;28;20046;-63
2022/09/10 03:07:06;;;;;;;21.77;15.95;;;;;;;14.56;100.00;100813.34;5088114;28;20024;-62
2022/09/10 03:09:31;;;;;;;23.20;15.38;;;;;;;14.57;100.00;100809.50;5086182;28;20107;-62
2022/09/10 03:11:56;;;;;;;26.17;16.33;;;;;;;14.58;100.00;100816.69;5086520;28;20036;-63
2022/09/10 03:14:23;;;;;;;22.80;15.33;;;;;;;14.59;100.00;100815.56;5077007;28;20033;-64
2022/09/10 03:16:49;;;;;;;24.08;15.80;;;;;;;14.60;100.00;100814.47;5067788;28;20633;-64
2022/09/10 03:19:15;;;;;;;25.48;16.17;;;;;;;14.60;100.00;100818.09;5076387;28;20031;-62
2022/09/10 03:21:41;;;;;;;22.88;16.65;;;;;;;14.61;100.00;100818.94;5092261;28;20035;-65
2022/09/10 03:24:06;;;;;;;24.30;16.10;;;;;;;14.61;100.00;100817.00;5089357;28;20024;-62
2022/09/10 03:26:32;;;;;;;24.05;16.08;;;;;;;14.60;100.00;100807.06;5089493;28;20039;-63
2022/09/10 03:28:58;;;;;;;24.08;16.75;;;;;;;14.60;100.00;100817.25;5089548;28;20073;-62
2022/09/10 03:31:23;;;;;;;27.00;15.95;;;;;;;14.60;100.00;100817.25;5091436;28;20028;-62
2022/09/10 03:33:49;;;;;;;20.80;16.58;;;;;;;14.59;100.00;100815.56;5090346;28;20042;-65
2022/09/10 03:36:16;;;;;;;24.63;18.10;;;;;;;14.59;100.00;100818.34;5091788;28;20035;-62
2022/09/10 03:38:42;;;;;;;24.05;16.80;;;;;;;14.60;100.00;100808.94;5090325;28;20210;-63
2022/09/10 03:41:08;;;;;;;23.17;16.20;;;;;;;14.60;100.00;100807.06;5087970;28;20018;-64
2022/09/10 03:43:33;;;;;;;24.40;17.30;;;;;;;14.59;100.00;100812.81;5089891;28;20042;-62
2022/09/10 03:45:58;;;;;;;24.30;17.52;;;;;;;14.59;100.00;100808.13;5090818;28;20029;-63
2022/09/10 03:48:23;;;;;;;25.00;18.55;;;;;;;14.60;100.00;100811.72;5091447;28;20055;-64
2022/09/10 03:50:52;;;;;;;27.50;17.50;;;;;;;14.59;100.00;100808.13;5089334;28;20028;-64
2022/09/10 03:53:17;;;;;;;;;;;;;;;14.64;100.00;100815.63;5089074;28;20036;-63
2022/09/10 03:55:47;;;;;;;26.48;16.98;;;;;;;14.61;100.00;100807.88;5089728;28;19922;-64
2022/09/10 03:58:14;;;;;;;24.88;17.38;;;;;;;14.62;100.00;100809.56;5088266;28;20451;-64
2022/09/10 04:00:39;;;;;;;24.10;17.80;;;;;;;14.64;100.00;100796.28;5085847;28;20039;-65
2022/09/10 04:03:05;;;;;;;25.67;18.08;;;;;;;14.63;100.00;100808.44;5088707;28;20046;-67
2022/09/10 04:05:31;;;;;;;25.08;17.75;;;;;;;14.61;100.00;100811.47;5090914;28;20067;-65
2022/09/10 04:07:57;;;;;;;26.60;18.70;;;;;;;14.60;100.00;100809.81;5089471;28;20399;-67
2022/09/10 04:10:24;;;;;;;29.65;19.92;;;;;;;14.58;100.00;100795.41;5086604;28;20079;-65
2022/09/10 04:12:51;;;;;;;28.77;19.95;;;;;;;14.60;100.00;100786.84;5086448;28;20038;-65
2022/09/10 04:15:17;;;;;;;29.70;19.42;;;;;;;14.60;100.00;100793.22;5091057;28;20064;-65
2022/09/10 04:17:42;;;;;;;29.27;19.92;;;;;;;14.62;100.00;100795.72;5088772;28;20066;-65
2022/09/10 04:20:08;;;;;;;28.23;20.50;;;;;;;14.64;100.00;100799.06;5090683;28;20035;-66
2022/09/10 04:22:33;;;;;;;30.77;19.77;;;;;;;14.63;100.00;100795.47;5089092;28;20534;-64
2022/09/10 04:24:58;;;;;;;28.77;20.85;;;;;;;14.62;100.00;100795.72;5087384;28;20161;-65
2022/09/10 04:27:25;;;;;;;29.55;21.25;;;;;;;14.64;100.00;100796.28;5087640;28;20119;-66
2022/09/10 04:29:50;;;;;;;29.20;19.75;;;;;;;14.64;100.00;100794.34;5088422;28;20073;-65
2022/09/10 04:32:16;;;;;;;28.75;20.77;;;;;;;14.65;100.00;100785.00;5089371;28;20486;-65
2022/09/10 04:34:41;;;;;;;31.27;20.40;;;;;;;14.66;100.00;100788.59;5088022;28;20036;-65
2022/09/10 04:37:06;;;;;;;28.48;21.33;;;;;;;14.64;100.00;100785.22;5090202;28;20274;-65
2022/09/10 04:39:32;;;;;;;27.38;22.35;;;;;;;14.65;100.00;100789.66;5090403;28;20951;-67
2022/09/10 04:41:57;;;;;;;26.02;20.17;;;;;;;14.66;100.00;100796.88;5087501;28;20651;-65
2022/09/10 04:44:23;;;;;;;27.92;21.50;;;;;;;14.65;100.00;100797.94;5089001;28;20080;-65
2022/09/10 04:46:49;;;;;;;27.92;20.40;;;;;;;14.65;100.00;100789.66;5088464;28;20036;-66
2022/09/10 04:49:14;;;;;;;29.85;22.20;;;;;;;14.66;100.00;100796.88;5089348;28;20046;-65
2022/09/10 04:51:39;;;;;;;33.05;21.65;;;;;;;14.66;100.00;100799.66;5088687;28;20038;-66
2022/09/10 04:54:04;;;;;;;29.98;20.80;;;;;;;14.67;100.00;100798.56;5089890;28;20425;-65
2022/09/10 04:56:30;;;;;;;31.42;21.65;;;;;;;14.67;100.00;100795.78;5087490;28;20031;-65
2022/09/10 04:58:56;;;;;;;31.50;22.02;;;;;;;14.70;100.00;100798.88;5088938;28;20107;-65
2022/09/10 05:01:21;;;;;;;27.58;20.77;;;;;;;14.67;100.00;100798.56;5089078;28;20382;-65
2022/09/10 05:03:46;;;;;;;29.65;21.27;;;;;;;14.69;100.00;100805.47;5088653;28;20442;-64
2022/09/10 05:06:11;;;;;;;28.88;20.83;;;;;;;14.71;100.00;100800.53;5089972;28;20024;-63
2022/09/10 05:08:37;;;;;;;30.10;21.23;;;;;;;14.71;100.00;100797.78;5089111;28;20032;-67
2022/09/10 05:11:02;;;;;;;31.15;21.88;;;;;;;14.71;100.00;100800.53;5085952;28;20062;-64
2022/09/10 05:13:30;;;;;;;30.48;21.08;;;;;;;14.74;100.00;100796.41;5089082;28;20160;-64
2022/09/10 05:15:57;;;;;;;30.80;20.98;;;;;;;14.72;100.00;100795.84;5086834;28;20031;-67
2022/09/10 05:18:23;;;;;;;30.05;21.42;;;;;;;14.74;100.00;100797.25;5086687;28;20463;-65
2022/09/10 05:20:48;;;;;;;31.40;21.30;;;;;;;14.74;100.00;100793.63;5088289;28;20032;-68
2022/09/10 05:23:13;;;;;;;28.52;21.00;;;;;;;14.76;100.00;100797.00;5088643;28;20032;-63
2022/09/10 05:25:38;;;;;;;33.70;21.77;;;;;;;14.74;100.00;100797.25;5089045;28;20032;-64
2022/09/10 05:28:04;;;;;;;25.88;22.08;;;;;;;14.79;100.00;100807.53;5087647;28;20068;-63
2022/09/10 05:30:31;;;;;;;28.10;21.25;;;;;;;14.79;100.00;100802.81;5085378;28;20032;-62
2022/09/10 05:32:58;;;;;;;31.42;21.58;;;;;;;14.78;100.00;100801.16;5088317;28;20032;-63
2022/09/10 05:35:24;;;;;;;29.83;21.03;;;;;;;14.80;100.00;100803.69;5088211;28;20393;-63
2022/09/10 05:37:49;;;;;;;28.75;21.50;;;;;;;14.81;100.00;100802.59;5088137;28;20032;-63
2022/09/10 05:40:15;;;;;;;31.65;22.25;;;;;;;14.83;100.00;100797.63;5087627;28;20016;-67
2022/09/10 05:42:40;;;;;;;30.65;21.92;;;;;;;14.82;100.00;100803.41;5087852;28;20035;-65
2022/09/10 05:45:06;;;;;;;33.08;22.45;;;;;;;14.84;100.00;100803.97;5088019;28;20028;-64
2022/09/10 05:47:33;;;;;;;32.03;23.45;;;;;;;14.84;100.00;100792.91;5088263;28;20081;-65
2022/09/10 05:49:58;;;;;;;30.27;23.23;;;;;;;14.85;100.00;100803.75;5087692;28;20092;-65
2022/09/10 05:52:25;;;;;;;29.83;22.73;;;;;;;14.86;100.00;100797.09;5086862;28;20024;-64
2022/09/10 05:54:50;;;;;;;31.55;22.38;;;;;;;14.87;100.00;100797.94;5082462;28;20482;-65
2022/09/10 05:57:16;;;;;;;29.58;22.60;;;;;;;14.89;100.00;100796.56;5084955;28;20020;-65
2022/09/10 05:59:41;;;;;;;31.52;22.48;;;;;;;14.90;100.00;100795.50;5086370;28;20024;-64
2022/09/10 06:02:13;;;;;;;32.43;23.03;;;;;;;14.90;100.00;100801.03;5085031;28;20739;-65
2022/09/10 06:04:39;;;;;;;34.60;23.38;;;;;;;14.90;100.00;100798.25;5087565;28;20385;-65
2022/09/10 06:07:04;;;;;;;33.65;23.00;;;;;;;14.94;100.00;100799.38;5085358;28;20111;-65
2022/09/10 06:09:30;;;;;;;30.15;22.80;;;;;;;14.96;100.00;100799.97;5086246;28;20154;-65
2022/09/10 06:11:55;;;;;;;29.23;22.77;;;;;;;14.98;100.00;100808.84;5084573;28;20032;-65
2022/09/10 06:14:21;;;;;;;27.58;22.27;;;;;;;15.01;100.00;100805.56;5082762;28;20036;-65
2022/09/10 06:16:48;;;;;;;29.38;22.27;;;;;;;15.03;100.00;100803.34;5087045;28;20068;-65
2022/09/10 06:19:13;;;;;;;29.35;23.20;;;;;;;15.06;100.00;100807.53;5086086;28;20024;-65
2022/09/10 06:21:39;;;;;;;28.98;22.23;;;;;;;15.12;100.00;100813.97;5087072;28;20092;-65
2022/09/10 06:24:04;;;;;;;29.20;22.40;;;;;;;15.12;100.00;100811.19;5084219;28;20469;-65
2022/09/10 06:26:29;;;;;;;29.80;21.65;;;;;;;15.13;100.00;100810.09;5082631;28;20024;-65
2022/09/10 06:28:55;;;;;;;26.00;21.63;;;;;;;15.11;100.00;100818.66;5082902;28;20119;-65
2022/09/10 06:31:22;;;;;;;28.40;23.60;;;;;;;15.12;100.00;100811.19;5087406;28;20039;-64
2022/09/10 06:33:47;;;;;;;26.45;22.08;;;;;;;15.12;100.00;100809.25;5086186;28;20101;-67
2022/09/10 06:36:13;;;;;;;28.38;22.85;;;;;;;15.11;100.00;100818.66;5086453;28;20024;-68
2022/09/10 06:38:39;;;;;;;29.25;22.20;;;;;;;15.10;100.00;100818.91;5081596;28;20036;-66
2022/09/10 06:41:07;;;;;;;29.73;22.35;;;;;;;15.09;100.00;100822.78;5076892;28;20039;-65
2022/09/10 06:43:35;;;;;;;29.63;22.52;;;;;;;15.09;100.00;100825.53;5068235;28;20035;-65
2022/09/10 06:46:03;;;;;;;30.45;22.60;;;;;;;15.08;100.00;100821.94;5076246;28;20076;-64
2022/09/10 06:48:30;;;;;;;27.73;23.98;;;;;;;15.12;100.00;100827.78;5068265;28;20352;-66
2022/09/10 06:51:00;;;;;;;28.85;22.63;;;;;;;15.10;100.00;100827.19;5071179;28;20116;-64
2022/09/10 06:53:28;;;;;;;27.42;22.00;;;;;;;15.12;100.00;100827.78;5080700;28;20039;-64
2022/09/10 06:55:54;;;;;;;27.88;23.00;;;;;;;15.10;100.00;100829.97;5084614;28;20472;-64
2022/09/10 06:58:24;;;;;;;25.98;22.75;;;;;;;15.11;100.00;100831.66;5077153;28;20767;-64
2022/09/10 07:00:50;;;;;;;25.35;21.55;;;;;;;15.14;100.00;100826.41;5071351;28;20556;-65
2022/09/10 07:03:17;;;;;;;27.55;21.98;;;;;;;15.13;100.00;100819.22;5071596;28;20112;-67
2022/09/10 07:05:47;;;;;;;27.90;22.63;;;;;;;15.16;100.00;100828.94;5073770;28;20039;-65
2022/09/10 07:08:14;;;;;;;28.20;22.88;;;;;;;15.20;100.00;100828.13;5085414;28;20028;-65
2022/09/10 07:10:43;;;;;;;26.67;22.45;;;;;;;15.26;100.00;100829.88;5070292;28;20419;-65
2022/09/10 07:13:08;;;;;;;;;;;;;;;15.35;100.00;100835.75;5078800;28;20039;-65
2022/09/10 07:15:33;;;;;;;26.60;22.07;;;;;;;15.30;100.00;100841.22;5075618;28;19965;-63
2022/09/10 07:17:59;;;;;;;25.98;22.45;;;;;;;15.29;100.00;100834.03;5075410;28;20032;-62
2022/09/10 07:20:26;;;;;;;28.20;23.60;;;;;;;15.26;100.00;100834.56;5075533;28;20117;-65
2022/09/10 07:22:52;;;;;;;30.10;25.23;;;;;;;15.26;100.00;100840.94;5076413;28;20036;-63
2022/09/10 07:25:18;;;;;;;29.38;23.98;;;;;;;15.28;100.00;100837.91;5082184;28;20039;-65
2022/09/10 07:27:44;;;;;;;27.38;23.17;;;;;;;15.26;100.00;100840.94;5072462;28;20036;-69
2022/09/10 07:30:10;;;;;;;28.55;23.05;;;;;;;15.26;100.00;100834.56;5072454;28;20035;-63
2022/09/10 07:32:35;;;;;;;26.67;21.58;;;;;;;15.27;100.00;100847.31;5070522;28;20652;-63
2022/09/10 07:35:00;;;;;;;27.90;22.90;;;;;;;15.25;100.00;100842.00;5084455;28;20017;-63
2022/09/10 07:37:26;;;;;;;27.67;24.55;;;;;;;15.27;100.00;100850.91;5071274;28;20021;-62
2022/09/10 07:39:51;;;;;;;26.38;23.02;;;;;;;15.25;100.00;100846.72;5083049;28;20413;-64
2022/09/10 07:42:16;;;;;;;25.90;23.15;;;;;;;15.26;100.00;100842.88;5072910;28;20028;-63
2022/09/10 07:44:42;;;;;;;26.73;22.65;;;;;;;15.27;100.00;100847.31;5078768;28;20416;-64
2022/09/10 07:47:07;;;;;;;27.33;23.73;;;;;;;15.28;100.00;100849.81;5075215;28;20028;-63
2022/09/10 07:49:33;;;;;;;31.98;26.00;;;;;;;15.31;100.00;100854.00;5070873;28;20054;-64
2022/09/10 07:51:58;;;;;;;28.60;25.00;;;;;;;15.33;100.00;100854.56;5080310;28;20032;-63
2022/09/10 07:54:24;;;;;;;29.40;26.52;;;;;;;15.34;100.00;100859.00;5078511;28;20028;-63
2022/09/10 07:56:49;;;;;;;31.70;27.80;;;;;;;15.36;100.00;100859.59;5081659;28;20049;-63
2022/09/10 07:59:14;;;;;;;30.30;27.13;;;;;;;15.37;100.00;100858.47;5085132;28;20110;-65
2022/09/10 08:01:40;;;;;;;32.30;28.13;;;;;;;15.41;100.00;100853.22;5076301;28;20086;-63
2022/09/10 08:04:06;;;;;;;32.83;29.00;;;;;;;15.41;100.00;100856.84;5074450;28;20024;-63
2022/09/10 08:06:32;;;;;;;32.45;29.13;;;;;;;15.47;100.00;100855.81;5069995;28;20036;-62
2022/09/10 08:08:58;;;;;;;33.20;29.60;;;;;;;15.50;100.00;100869.09;5079562;28;20028;-63
2022/09/10 08:11:24;;;;;;;34.65;30.88;;;;;;;15.61;100.00;100874.72;5069228;28;20139;-63
2022/09/10 08:13:51;;;;;;;34.92;31.42;;;;;;;15.76;100.00;100870.22;5073531;28;20108;-62
2022/09/10 08:16:20;;;;;;;35.70;31.50;;;;;;;15.94;100.00;100870.88;5077502;28;20028;-63
2022/09/10 08:18:47;;;;;;;32.78;29.48;;;;;;;16.05;100.00;100876.22;5079106;28;20478;-63
2022/09/10 08:21:13;;;;;;;32.67;29.50;;;;;;;16.07;100.00;100868.50;5073698;28;20063;-63
2022/09/10 08:23:39;;;;;;;34.63;31.23;;;;;;;16.18;100.00;100879.66;5069778;28;20044;-62
2022/09/10 08:26:07;;;;;;;34.25;30.73;;;;;;;16.27;100.00;100889.09;5068800;28;20025;-63
2022/09/10 08:28:33;;;;;;;33.38;29.80;;;;;;;16.39;100.00;100892.53;5078618;28;20032;-63
2022/09/10 08:31:03;;;;;;;33.17;29.58;;;;;;;16.50;100.00;100894.25;5083268;28;20089;-62
2022/09/10 08:33:30;;;;;;;34.28;30.45;;;;;;;16.63;100.00;100905.97;5082214;28;20035;-62
2022/09/10 08:35:57;;;;;;;34.03;30.52;;;;;;;16.69;100.00;100904.88;5077219;28;20459;-63
2022/09/10 08:38:34;;;;;;;32.43;29.37;;;;;;;16.65;100.00;100907.34;5069868;28;20086;-63
2022/09/10 08:41:01;;;;;;;29.55;26.55;;;;;;;16.65;100.00;100907.34;5071321;28;20126;-62
2022/09/10 08:43:37;;;;;;;32.00;28.60;;;;;;;16.57;100.00;100913.41;5067842;28;20395;-63
2022/09/10 08:46:09;;;;;;;32.90;29.63;;;;;;;16.63;100.00;100917.06;5073343;28;20036;-62
2022/09/10 08:48:38;;;;;;;32.95;29.52;;;;;;;16.74;100.00;100916.03;5074677;28;20412;-62
2022/09/10 08:51:17;;;;;;;33.10;29.80;;;;;;;16.85;100.00;100915.78;5072452;28;20086;-63
2022/09/10 08:54:10;;;;;;;32.10;28.85;;;;;;;16.99;100.00;100912.53;5069321;28;20119;-65
2022/09/10 08:56:36;;;;;;;30.30;27.45;;;;;;;16.93;100.00;100916.38;5072852;28;20669;-62
2022/09/10 08:59:13;;;;;;;31.35;27.55;;;;;;;16.79;100.00;100924.38;5080390;28;20024;-63
2022/09/10 09:01:46;;;;;;;30.65;27.50;;;;;;;16.69;100.00;100927.06;5069539;28;20044;-63
2022/09/10 09:04:28;;;;;;;30.23;27.13;;;;;;;16.57;100.00;100930.03;5076070;28;20035;-64
2022/09/10 09:07:00;;;;;;;30.30;27.10;;;;;;;16.48;100.00;100934.44;5078593;28;20028;-65
2022/09/10 09:09:25;;;;;;;29.75;26.73;;;;;;;16.41;100.00;100931.88;5084456;28;20036;-63
2022/09/10 09:12:29;;;;;;;28.88;25.70;;;;;;;16.43;100.00;100935.25;5070371;28;20032;-63
2022/09/10 09:15:17;;;;;;;28.38;25.65;;;;;;;16.60;100.00;100935.06;5074037;28;20048;-63
2022/09/10 09:18:09;;;;;;;;;;;;;;;16.81;100.00;100938.78;5069214;28;20028;-62
2022/09/10 09:20:44;;;;;;;22.73;20.33;;;;;;;16.84;100.00;100933.56;5072094;28;19919;-62
2022/09/10 09:23:19;;;;;;;23.10;20.00;;;;;;;16.73;100.00;100939.31;5073156;28;20031;-63
2022/09/10 09:25:49;;;;;;;22.98;20.58;;;;;;;16.68;100.00;100940.09;5079483;28;20035;-66
2022/09/10 09:28:58;;;;;;;22.35;20.05;;;;;;;16.77;100.00;100943.22;5089268;28;20032;-64
2022/09/10 09:31:31;;;;;;;22.95;20.63;;;;;;;17.10;100.00;100937.25;5053425;28;20054;-62
2022/09/10 09:34:05;;;;;;;22.38;18.38;;;;;;;17.50;100.00;100940.44;5088561;28;20042;-62
2022/09/10 09:36:42;;;;;;;19.05;17.02;;;;;;;17.58;100.00;100948.19;5087270;28;20025;-63
2022/09/10 09:39:25;;;;;;;22.30;17.45;;;;;;;17.52;100.00;100936.25;5068348;28;20033;-63
2022/09/10 09:41:57;;;;;;;19.27;17.30;;;;;;;17.55;100.00;100944.03;5067043;28;20484;-65
2022/09/10 09:44:39;;;;;;;20.85;17.33;;;;;;;17.58;100.00;100937.94;5072639;28;20027;-63
2022/09/10 09:47:07;;;;;;;19.73;16.98;;;;;;;17.51;100.00;100937.38;5088588;28;20078;-62
2022/09/10 09:49:32;;;;;;;18.95;16.42;;;;;;;17.60;100.00;100941.28;5087945;28;20027;-63
2022/09/10 09:52:08;;;;;;;22.63;16.10;;;;;;;17.61;100.00;100931.84;5088168;28;20028;-64
2022/09/10 09:54:45;;;;;;;20.25;15.85;;;;;;;17.58;100.00;100948.19;5087703;28;20028;-63
2022/09/10 09:57:19;;;;;;;18.85;14.48;;;;;;;17.92;100.00;100943.00;5087309;28;20092;-65
2022/09/10 09:59:45;;;;;;;17.48;13.52;;;;;;;18.38;100.00;100946.59;5087598;28;20479;-64
2022/09/10 10:02:14;;;;;;;16.50;12.68;;;;;;;19.08;98.51;100938.34;5088361;28;20544;-63
2022/09/10 10:05:25;;;;;;;15.30;11.27;;;;;;;19.54;96.98;100928.91;5086022;28;20035;-63
2022/09/10 10:07:51;;;;;;;13.98;11.55;;;;;;;19.57;93.43;100936.69;5080869;28;20066;-63
2022/09/10 10:10:23;;;;;;;12.82;10.55;;;;;;;19.25;93.59;100937.97;5087176;28;20044;-63
2022/09/10 10:12:51;;;;;;;13.30;10.70;;;;;;;19.07;94.18;100950.59;5087889;28;20016;-63
2022/09/10 10:15:43;;;;;;;14.45;11.48;;;;;;;18.99;96.01;100964.25;5086448;28;20115;-63
2022/09/10 10:18:21;;;;;;;15.23;11.80;;;;;;;18.74;96.37;100954.88;5086721;28;20499;-63
2022/09/10 10:20:48;;;;;;;15.32;12.02;;;;;;;18.71;98.94;100965.75;5087886;28;20039;-65
2022/09/10 10:23:35;;;;;;;17.67;13.77;;;;;;;18.74;99.14;100956.84;5088641;28;20055;-63
2022/09/10 10:26:14;;;;;;;15.77;11.18;;;;;;;18.67;98.77;100955.16;5084801;28;20083;-64
2022/09/10 10:28:45;;;;;;;15.45;11.32;;;;;;;18.75;98.25;100942.63;5092636;28;20463;-62
2022/09/10 10:31:11;;;;;;;17.05;9.75;;;;;;;18.62;96.67;100944.03;5091671;28;20448;-64
2022/09/10 10:34:00;;;;;;;13.25;11.63;;;;;;;18.37;99.58;100949.66;5092742;28;20035;-62
2022/09/10 10:36:49;;;;;;;14.60;9.50;;;;;;;18.15;100.00;100961.09;5091713;28;20039;-62
2022/09/10 10:39:25;;;;;;;14.82;10.50;;;;;;;17.92;100.00;100964.41;5092812;28;20027;-62
2022/09/10 10:42:21;;;;;;;14.70;9.65;;;;;;;17.77;100.00;100956.88;5090703;28;20051;-65
2022/09/10 10:45:18;;;;;;;15.70;9.90;;;;;;;17.65;100.00;100976.56;5089903;28;20142;-65
2022/09/10 10:47:52;;;;;;;13.88;9.95;;;;;;;17.37;100.00;100980.66;5075454;28;20106;-63
2022/09/10 10:50:42;;;;;;;15.65;9.95;;;;;;;17.26;100.00;100976.16;5092017;28;20028;-62
2022/09/10 10:53:26;;;;;;;14.50;8.95;;;;;;;17.20;100.00;100980.88;5090775;28;20040;-62
2022/09/10 10:56:18;;;;;;;17.67;9.00;;;;;;;17.19;100.00;100981.16;5090076;28;20134;-62
2022/09/10 10:59:23;;;;;;;13.70;7.60;;;;;;;17.12;100.00;100985.00;5091330;28;20135;-63
2022/09/10 11:01:56;;;;;;;16.33;9.23;;;;;;;17.09;100.00;100991.09;5090132;28;20385;-66
2022/09/10 11:04:40;;;;;;;15.30;9.20;;;;;;;17.08;100.00;100988.56;5086401;28;20040;-64
2022/09/10 11:07:31;;;;;;;15.38;7.95;;;;;;;17.08;100.00;100971.91;5091150;28;20393;-63
2022/09/10 11:10:02;;;;;;;11.82;6.03;;;;;;;16.99;100.00;100968.84;5079176;28;20051;-63
2022/09/10 11:12:46;;;;;;;14.40;6.78;;;;;;;17.01;100.00;100983.28;5086803;28;20047;-62
2022/09/10 11:15:27;;;;;;;12.90;6.80;;;;;;;16.97;100.00;100978.53;5082562;28;20122;-65
2022/09/10 11:17:59;;;;;;;11.23;6.35;;;;;;;16.95;100.00;100981.59;5087468;28;20044;-62